Time;durP1;ratioP1;P1;durP2;ratioP2;P2;SDS_P1;SDS_P2;PMS_P1;PMS_P2;Temp;Humidity;BMP_temperature;BMP_pressure;BME280_temperature;BME280_humidity;BME280_pressure;Samples;Min_cycle;Max_cycle;Signal;HPM_P1;HPM_P2
2021/09/29 00:02:28;;;;;;;;;;;14.10;99.90;;;;;;8357011;28;20007;-65
2021/09/29 00:06:28;;;;;;;;;;;14.00;99.90;;;;;;8358065;28;19955;-64
2021/09/29 00:10:29;;;;;;;;;;;14.10;99.90;;;;;;8356965;28;19916;-65
2021/09/29 00:14:29;;;;;;;;;;;13.90;99.90;;;;;;8357817;28;19927;-65
2021/09/29 00:18:30;;;;;;;;;;;14.00;99.90;;;;;;8358049;28;20389;-65
2021/09/29 00:22:30;;;;;;;;;;;13.80;99.90;;;;;;8358368;28;19992;-65
2021/09/29 00:26:31;;;;;;;;;;;13.80;99.90;;;;;;8357760;28;19962;-65
2021/09/29 00:30:36;;;;;;;;;;;13.80;99.90;;;;;;8358044;28;19916;-65
2021/09/29 00:34:39;;;;;;;;;;;13.80;99.90;;;;;;8362206;28;19913;-65
2021/09/29 00:38:40;;;;;;;;;;;13.90;99.90;;;;;;8364023;28;20410;-65
2021/09/29 00:42:40;;;;;;;;;;;13.80;99.90;;;;;;8363790;28;19909;-64
2021/09/29 00:46:42;;;;;;;;;;;13.90;99.90;;;;;;8363311;28;19909;-64
2021/09/29 00:50:43;;;;;;;;;;;13.90;99.90;;;;;;8361475;28;19927;-65
2021/09/29 00:54:43;;;;;;;;;;;13.70;99.90;;;;;;8393453;28;19942;-64
2021/09/29 00:58:43;;;;;;;;;;;13.70;99.90;;;;;;8395683;28;20473;-65
2021/09/29 01:02:44;;;;;;;;;;;13.60;99.90;;;;;;8396600;28;20054;-64
2021/09/29 01:06:53;;;;;;;;;;;13.70;99.90;;;;;;8396108;28;19951;-65
2021/09/29 01:10:57;;;;;;;;;;;13.60;99.90;;;;;;8396210;28;19908;-65
2021/09/29 01:14:57;;;;;;;;;;;13.80;99.90;;;;;;8395488;28;20534;-64
2021/09/29 01:18:58;;;;;;;;;;;13.90;99.90;;;;;;8395957;28;19909;-64
2021/09/29 01:23:06;;;;;;;;;;;13.70;99.90;;;;;;8394269;28;19916;-64
2021/09/29 01:27:08;;;;;;;;;;;13.90;99.90;;;;;;8395047;28;19961;-64
2021/09/29 01:31:08;;;;;;;;;;;13.90;99.90;;;;;;8393753;28;19943;-64
2021/09/29 01:35:09;;;;;;;;;;;13.70;99.90;;;;;;8394490;28;19913;-64
2021/09/29 01:39:10;;;;;;;;;;;13.50;99.90;;;;;;8395184;28;20454;-64
2021/09/29 01:43:11;;;;;;;;;;;13.50;99.90;;;;;;8393930;28;19913;-64
2021/09/29 01:47:13;;;;;;;;;;;13.50;99.90;;;;;;8393114;28;20397;-64
2021/09/29 01:51:14;;;;;;;;;;;13.50;99.90;;;;;;8361577;28;20402;-64
2021/09/29 01:55:17;;;;;;;;;;;13.40;99.90;;;;;;8361103;28;19939;-64
2021/09/29 01:59:17;;;;;;;;;;;13.50;99.90;;;;;;8360013;28;20290;-64
2021/09/29 02:03:21;;;;;;;;;;;13.70;99.90;;;;;;8361199;28;19909;-64
2021/09/29 02:07:21;;;;;;;;;;;13.60;99.90;;;;;;8361072;28;19908;-64
2021/09/29 02:11:22;;;;;;;;;;;13.80;99.90;;;;;;8361007;28;19940;-64
2021/09/29 02:15:23;;;;;;;;;;;13.80;99.90;;;;;;8360541;28;20458;-64
2021/09/29 02:19:24;;;;;;;;;;;13.70;99.90;;;;;;8360603;28;20342;-64
2021/09/29 02:23:24;;;;;;;;;;;13.70;99.90;;;;;;8359156;28;20007;-64
2021/09/29 02:27:25;;;;;;;;;;;13.80;99.90;;;;;;8360314;28;19916;-64
2021/09/29 02:31:26;;;;;;;;;;;13.60;99.90;;;;;;8360172;28;20375;-64
2021/09/29 02:35:26;;;;;;;;;;;13.70;99.90;;;;;;8358274;28;19917;-64
2021/09/29 02:39:27;;;;;;;;;;;13.60;99.90;;;;;;8360074;28;19988;-64
2021/09/29 02:43:27;;;;;;;;;;;13.60;99.90;;;;;;8359072;28;19932;-64
2021/09/29 02:47:27;;;;;;;;;;;13.50;99.90;;;;;;8359723;28;19916;-64
2021/09/29 02:51:28;;;;;;;;;;;13.50;99.90;;;;;;8359570;28;19916;-64
2021/09/29 02:55:28;;;;;;;;;;;13.40;99.90;;;;;;8359052;28;20455;-64
2021/09/29 02:59:29;;;;;;;;;;;13.60;99.90;;;;;;8358888;28;19931;-64
2021/09/29 03:03:29;;;;;;;;;;;13.60;99.90;;;;;;8359551;28;20394;-64
2021/09/29 03:07:30;;;;;;;;;;;13.50;99.90;;;;;;8357656;28;19917;-64
2021/09/29 03:11:30;;;;;;;;;;;13.50;99.90;;;;;;8359300;28;19912;-64
2021/09/29 03:15:31;;;;;;;;;;;13.50;99.90;;;;;;8357417;28;19917;-64
2021/09/29 03:19:31;;;;;;;;;;;13.50;99.90;;;;;;8359223;28;19909;-64
2021/09/29 03:23:32;;;;;;;;;;;13.30;99.90;;;;;;8358349;28;19925;-64
2021/09/29 03:27:32;;;;;;;;;;;13.40;99.90;;;;;;8357684;28;19998;-64
2021/09/29 03:31:33;;;;;;;;;;;13.20;99.90;;;;;;8360358;28;20342;-64
2021/09/29 03:35:34;;;;;;;;;;;13.30;99.90;;;;;;8377221;28;19916;-64
2021/09/29 03:39:35;;;;;;;;;;;;;;;;;;8374176;28;19990;-64
2021/09/29 03:43:36;;;;;;;;;;;13.20;99.90;;;;;;8371888;28;19917;-64
2021/09/29 03:47:36;;;;;;;;;;;13.10;99.90;;;;;;8380649;28;19975;-64
2021/09/29 03:51:37;;;;;;;;;;;13.10;99.90;;;;;;8358960;28;20268;-64
2021/09/29 03:55:37;;;;;;;;;;;13.00;99.90;;;;;;8357327;28;20027;-64
2021/09/29 03:59:38;;;;;;;;;;;13.00;99.90;;;;;;8358840;28;20006;-64
2021/09/29 04:03:38;;;;;;;;;;;13.00;99.90;;;;;;8361979;28;20306;-64
2021/09/29 04:07:39;;;;;;;;;;;12.90;99.90;;;;;;8392673;28;20382;-64
2021/09/29 04:11:39;;;;;;;;;;;12.90;99.90;;;;;;8384632;28;19909;-64
2021/09/29 04:15:40;;;;;;;;;;;12.90;99.90;;;;;;8397447;28;19913;-64
2021/09/29 04:19:40;;;;;;;;;;;12.80;99.90;;;;;;8375755;28;19920;-64
2021/09/29 04:23:41;;;;;;;;;;;12.90;99.90;;;;;;8364531;28;20008;-64
2021/09/29 04:27:41;;;;;;;;;;;12.80;99.90;;;;;;8362860;28;20299;-64
2021/09/29 04:31:42;;;;;;;;;;;12.90;99.90;;;;;;8367636;28;20371;-64
2021/09/29 04:35:42;;;;;;;;;;;12.90;99.90;;;;;;8396416;28;20466;-64
2021/09/29 04:39:43;;;;;;;;;;;12.90;99.90;;;;;;8395783;28;20165;-64
2021/09/29 04:43:43;;;;;;;;;;;12.90;99.90;;;;;;8395995;28;19919;-64
2021/09/29 04:47:44;;;;;;;;;;;12.90;99.90;;;;;;8390200;28;19954;-64
2021/09/29 04:51:44;;;;;;;;;;;13.00;99.90;;;;;;8362945;28;19915;-64
2021/09/29 04:55:45;;;;;;;;;;;12.90;99.90;;;;;;8362836;28;19921;-64
2021/09/29 04:59:45;;;;;;;;;;;12.90;99.90;;;;;;8362654;28;19920;-64
2021/09/29 05:03:46;;;;;;;;;;;12.90;99.90;;;;;;8366676;28;19925;-64
2021/09/29 05:07:48;;;;;;;;;;;13.00;99.90;;;;;;8372386;28;20025;-64
2021/09/29 05:11:50;;;;;;;;;;;12.90;99.90;;;;;;8362771;28;19992;-64
2021/09/29 05:15:50;;;;;;;;;;;12.90;99.90;;;;;;8361150;28;20402;-64
2021/09/29 05:19:51;;;;;;;;;;;13.00;99.90;;;;;;8361180;28;19966;-64
2021/09/29 05:23:51;;;;;;;;;;;13.00;99.90;;;;;;8362383;28;20379;-64
2021/09/29 05:27:52;;;;;;;;;;;13.00;99.90;;;;;;8373822;28;19923;-64
2021/09/29 05:31:52;;;;;;;;;;;13.10;99.90;;;;;;8395787;28;19908;-64
2021/09/29 05:35:53;;;;;;;;;;;13.00;99.90;;;;;;8395038;28;19916;-64
2021/09/29 05:39:53;;;;;;;;;;;13.00;99.90;;;;;;8393707;28;19909;-64
2021/09/29 05:43:54;;;;;;;;;;;12.90;99.90;;;;;;8393728;28;20305;-64
2021/09/29 05:47:54;;;;;;;;;;;13.00;99.90;;;;;;8387526;28;19913;-64
2021/09/29 05:51:55;;;;;;;;;;;13.00;99.90;;;;;;8361842;28;19913;-64
2021/09/29 05:55:55;;;;;;;;;;;13.00;99.90;;;;;;8359860;28;19917;-64
2021/09/29 05:59:56;;;;;;;;;;;13.10;99.90;;;;;;8360826;28;19998;-64
2021/09/29 06:03:56;;;;;;;;;;;13.10;99.90;;;;;;8361429;28;19913;-64
2021/09/29 06:07:57;;;;;;;;;;;13.20;99.90;;;;;;8361107;28;19916;-64
2021/09/29 06:11:57;;;;;;;;;;;13.10;99.90;;;;;;8361039;28;19944;-64
2021/09/29 06:16:01;;;;;;;;;;;13.20;99.90;;;;;;8360548;28;19920;-64
2021/09/29 06:20:02;;;;;;;;;;;13.10;99.90;;;;;;8360585;28;19913;-64
2021/09/29 06:24:03;;;;;;;;;;;13.20;99.90;;;;;;8360487;28;19921;-64
2021/09/29 06:28:04;;;;;;;;;;;13.30;99.90;;;;;;8380212;28;20060;-64
2021/09/29 06:32:04;;;;;;;;;;;13.40;99.90;;;;;;8377028;28;19958;-64
2021/09/29 06:36:05;;;;;;;;;;;13.40;99.90;;;;;;8359667;28;19974;-64
2021/09/29 06:40:06;;;;;;;;;;;13.50;99.90;;;;;;8360304;28;19920;-64
2021/09/29 06:44:07;;;;;;;;;;;13.50;99.90;;;;;;8359007;28;19942;-64
2021/09/29 06:48:10;;;;;;;;;;;13.50;99.90;;;;;;8369223;28;19920;-64
2021/09/29 06:52:10;;;;;;;;;;;13.40;99.90;;;;;;8359716;28;19978;-64
2021/09/29 06:56:11;;;;;;;;;;;13.40;99.90;;;;;;8359480;28;19921;-64
2021/09/29 07:00:13;;;;;;;;;;;13.60;99.90;;;;;;8360175;28;19909;-64
2021/09/29 07:04:13;;;;;;;;;;;13.70;99.90;;;;;;8373539;28;20299;-64
2021/09/29 07:08:14;;;;;;;;;;;14.10;99.90;;;;;;8368855;28;19912;-64
2021/09/29 07:12:14;;;;;;;;;;;14.30;99.90;;;;;;8369202;28;19913;-64
2021/09/29 07:16:17;;;;;;;;;;;14.40;99.90;;;;;;8374915;28;20386;-65
2021/09/29 07:20:18;;;;;;;;;;;14.50;99.90;;;;;;8377990;28;19920;-64
2021/09/29 07:24:19;;;;;;;;;;;14.70;99.90;;;;;;8375257;28;19913;-64
2021/09/29 07:28:19;;;;;;;;;;;14.80;99.90;;;;;;8364661;28;20421;-64
2021/09/29 07:32:20;;;;;;;;;;;15.10;99.90;;;;;;8366128;28;19917;-64
2021/09/29 07:36:20;;;;;;;;;;;15.40;99.90;;;;;;8366927;28;19919;-67
2021/09/29 07:40:21;;;;;;;;;;;15.80;99.90;;;;;;8387122;28;20381;-67
2021/09/29 07:44:22;;;;;;;;;;;16.10;99.90;;;;;;8392363;28;19917;-66
2021/09/29 07:48:22;;;;;;;;;;;15.70;99.90;;;;;;8380516;28;19916;-67
2021/09/29 07:52:23;;;;;;;;;;;15.50;99.90;;;;;;8370417;28;19912;-67
2021/09/29 07:56:24;;;;;;;;;;;15.50;99.90;;;;;;8379668;28;19940;-67
2021/09/29 08:00:24;;;;;;;;;;;15.70;99.90;;;;;;8388413;28;19962;-68
2021/09/29 08:04:25;;;;;;;;;;;15.90;99.90;;;;;;8397439;28;19912;-69
2021/09/29 08:08:25;;;;;;;;;;;16.10;99.90;;;;;;8379979;28;20005;-68
2021/09/29 08:12:26;;;;;;;;;;;15.80;99.90;;;;;;8380016;28;19942;-69
2021/09/29 08:16:26;;;;;;;;;;;15.80;99.90;;;;;;8376421;28;19952;-71
2021/09/29 08:20:28;;;;;;;;;;;15.80;99.90;;;;;;8378303;28;20287;-68
2021/09/29 08:24:38;;;;;;;;;;;16.00;99.90;;;;;;8371940;28;19912;-68
2021/09/29 08:28:45;;;;;;;;;;;16.10;99.90;;;;;;8374402;28;19921;-67
2021/09/29 08:37:04;;;;;;;;;;;16.10;99.90;;;;;;8366413;28;19916;-68
2021/09/29 08:45:12;;;;;;;;;;;16.30;99.90;;;;;;8379761;28;19912;-67
2021/09/29 08:49:32;;;;;;;;;;;16.30;99.90;;;;;;8388645;28;19908;-68
2021/09/29 08:53:51;;;;;;;;;;;16.30;99.90;;;;;;8391011;28;19974;-68
2021/09/29 08:58:04;;;;;;;;;;;16.40;99.90;;;;;;8365044;28;19947;-67
2021/09/29 09:15:22;;;;;;;;;;;16.30;99.90;;;;;;8385741;28;19927;-68
2021/09/29 09:19:26;;;;;;;;;;;16.50;99.90;;;;;;8378465;28;19969;-67
2021/09/29 09:23:36;;;;;;;;;;;16.80;99.90;;;;;;8371591;28;20302;-68
2021/09/29 09:27:45;;;;;;;;;;;17.00;99.90;;;;;;8371081;28;19950;-64
2021/09/29 09:31:46;;;;;;;;;;;17.30;99.90;;;;;;8361209;28;20397;-65
2021/09/29 09:35:47;;;;;;;;;;;17.70;99.90;;;;;;8359386;28;20024;-64
2021/09/29 09:39:48;;;;;;;;;;;17.90;99.90;;;;;;8361046;28;19909;-65
2021/09/29 09:43:53;;;;;;;;;;;18.20;99.90;;;;;;8359752;28;19929;-65
2021/09/29 09:47:53;;;;;;;;;;;18.30;99.90;;;;;;8362021;28;19916;-64
2021/09/29 09:51:57;;;;;;;;;;;18.10;99.90;;;;;;8360698;28;19909;-65
2021/09/29 09:55:57;;;;;;;;;;;17.80;99.90;;;;;;8361983;28;19917;-64
2021/09/29 09:59:58;;;;;;;;;;;17.70;99.90;;;;;;8361985;28;20359;-64
2021/09/29 10:04:09;;;;;;;;;;;17.60;99.90;;;;;;8361101;28;19909;-65
2021/09/29 10:08:14;;;;;;;;;;;18.00;99.90;;;;;;8361808;28;19909;-64
2021/09/29 10:12:22;;;;;;;;;;;18.10;99.90;;;;;;8361846;28;19913;-64
2021/09/29 10:29:34;;;;;;;;;;;17.90;99.90;;;;;;8394858;28;19951;-65
2021/09/29 10:33:40;;;;;;;;;;;17.80;99.90;;;;;;8393755;28;19909;-65
2021/09/29 10:42:17;;;;;;;;;;;18.50;99.90;;;;;;8393880;28;19916;-65
2021/09/29 11:27:15;;;;;;;;;;;24.90;94.10;;;;;;8343965;28;19915;-65
2021/09/29 11:33:49;;;;;;;;;;;24.10;93.50;;;;;;8359988;28;20418;-66
2021/09/29 12:08:18;;;;;;;;;;;28.20;67.60;;;;;;8359147;28;19916;-65
2021/09/29 12:12:25;;;;;;;;;;;26.80;71.50;;;;;;8358710;28;20371;-65
2021/09/29 12:16:28;;;;;;;;;;;27.70;70.10;;;;;;8358448;28;19920;-65
2021/09/29 12:20:29;;;;;;;;;;;28.30;66.80;;;;;;8358462;28;19951;-65
2021/09/29 12:24:30;;;;;;;;;;;28.90;63.10;;;;;;8357444;28;19987;-66
2021/09/29 12:28:35;;;;;;;;;;;28.20;64.10;;;;;;8360754;28;19959;-65
2021/09/29 12:32:49;;;;;;;;;;;25.60;70.00;;;;;;8363268;28;19909;-64
2021/09/29 12:36:49;;;;;;;;;;;23.60;79.50;;;;;;8363739;28;19992;-66
2021/09/29 12:40:50;;;;;;;;;;;21.50;85.60;;;;;;8362909;28;19924;-65
2021/09/29 12:44:51;;;;;;;;;;;20.30;90.70;;;;;;8363471;28;19909;-65
2021/09/29 12:48:52;;;;;;;;;;;19.80;93.30;;;;;;8364219;28;19924;-65
2021/09/29 12:53:02;;;;;;;;;;;19.60;93.50;;;;;;8362611;28;19916;-64
2021/09/29 12:57:03;;;;;;;;;;;19.80;93.90;;;;;;8363735;28;19976;-65
2021/09/29 13:01:03;;;;;;;;;;;21.30;92.50;;;;;;8362472;28;19909;-65
2021/09/29 13:05:04;;;;;;;;;;;22.20;90.90;;;;;;8363623;28;19909;-65
2021/09/29 13:09:04;;;;;;;;;;;21.40;92.90;;;;;;8363823;28;19909;-65
2021/09/29 13:13:05;;;;;;;;;;;21.00;93.70;;;;;;8362421;28;20268;-65
2021/09/29 13:17:06;;;;;;;;;;;20.60;94.90;;;;;;8363218;28;20355;-65
2021/09/29 13:21:23;;;;;;;;;;;20.30;96.40;;;;;;8363597;28;19924;-66
2021/09/29 13:38:09;;;;;;;;;;;20.40;94.10;;;;;;8362593;28;19962;-65
2021/09/29 13:42:10;;;;;;;;;;;20.10;95.00;;;;;;8362494;28;19909;-65
2021/09/29 13:46:10;;;;;;;;;;;20.50;95.00;;;;;;8360394;28;19913;-65
2021/09/29 13:50:13;;;;;;;;;;;22.50;91.50;;;;;;8362376;28;19913;-65
2021/09/29 13:54:17;;;;;;;;;;;21.40;92.00;;;;;;8360714;28;20334;-66
2021/09/29 14:28:54;;;;;;;;;;;26.20;73.90;;;;;;8379183;28;19942;-64
2021/09/29 14:37:02;;;;;;;;;;;23.40;84.10;;;;;;8381282;28;21380;-65
2021/09/29 14:41:03;;;;;;;;;;;23.30;83.60;;;;;;8372397;28;19919;-64
2021/09/29 14:45:03;;;;;;;;;;;25.00;80.50;;;;;;8373338;28;20293;-64
2021/09/29 14:49:04;;;;;;;;;;;25.30;79.40;;;;;;8372253;28;19909;-64
2021/09/29 14:53:05;;;;;;;;;;;25.30;78.20;;;;;;8376457;28;19999;-64
2021/09/29 14:57:10;;;;;;;;;;;25.40;78.30;;;;;;8376388;28;20294;-64
2021/09/29 15:01:10;;;;;;;;;;;23.60;84.30;;;;;;8378972;28;20340;-64
2021/09/29 15:05:11;;;;;;;;;;;23.30;87.30;;;;;;8364459;28;19959;-63
2021/09/29 15:09:12;;;;;;;;;;;23.40;86.40;;;;;;8362237;28;20375;-65
2021/09/29 15:13:15;;;;;;;;;;;21.60;90.70;;;;;;8375288;28;19929;-65
2021/09/29 15:17:39;;;;;;;;;;;20.20;92.40;;;;;;8389184;28;19935;-64
2021/09/29 15:26:10;;;;;;;;;;;18.90;94.60;;;;;;8382637;28;19991;-65
2021/09/29 15:51:47;;;;;;;;;;;17.30;99.90;;;;;;8380516;28;19912;-64
2021/09/29 16:16:38;;;;;;;;;;;16.60;99.90;;;;;;8393498;28;20371;-64
2021/09/29 16:21:22;;;;;;;;;;;16.20;99.90;;;;;;8384446;28;19921;-64
2021/09/29 16:33:59;;;;;;;;;;;14.80;99.90;;;;;;8387404;28;20669;-64
2021/09/29 16:38:00;;;;;;;;;;;14.40;99.90;;;;;;8394506;28;19919;-64
2021/09/29 16:42:01;;;;;;;;;;;14.20;99.90;;;;;;8394415;28;20386;-65
2021/09/29 16:46:01;;;;;;;;;;;13.90;99.90;;;;;;8392161;28;20058;-63
2021/09/29 16:50:03;;;;;;;;;;;13.80;99.90;;;;;;8370529;28;19909;-63
2021/09/29 16:54:10;;;;;;;;;;;13.50;99.90;;;;;;8386918;28;19948;-64
2021/09/29 16:58:19;;;;;;;;;;;13.20;99.90;;;;;;8391838;28;19952;-64
2021/09/29 17:02:19;;;;;;;;;;;12.80;99.90;;;;;;8387607;28;19928;-64
2021/09/29 17:06:20;;;;;;;;;;;12.60;99.90;;;;;;8392956;28;19934;-64
2021/09/29 17:10:20;;;;;;;;;;;12.50;99.90;;;;;;8393390;28;19909;-64
2021/09/29 17:14:21;;;;;;;;;;;12.50;99.90;;;;;;8392650;28;20579;-64
2021/09/29 17:18:21;;;;;;;;;;;12.40;99.90;;;;;;8361349;28;19959;-64
2021/09/29 17:22:21;;;;;;;;;;;12.50;99.90;;;;;;8358743;28;20177;-64
2021/09/29 17:26:22;;;;;;;;;;;12.50;99.90;;;;;;8359588;28;20398;-64
2021/09/29 17:30:26;;;;;;;;;;;12.50;99.90;;;;;;8359817;28;19916;-64
2021/09/29 17:34:35;;;;;;;;;;;12.50;99.90;;;;;;8357859;28;20008;-63
2021/09/29 17:55:53;;;;;;;;;;;12.40;99.90;;;;;;8358831;28;19930;-64
2021/09/29 17:59:55;;;;;;;;;;;12.40;99.90;;;;;;8358622;28;20011;-64
2021/09/29 18:04:06;;;;;;;;;;;12.40;99.90;;;;;;8357465;28;19916;-65
2021/09/29 18:08:06;;;;;;;;;;;12.30;99.90;;;;;;8358192;28;19971;-64
2021/09/29 18:12:07;;;;;;;;;;;12.10;99.90;;;;;;8358280;28;19912;-64
2021/09/29 18:16:07;;;;;;;;;;;12.10;99.90;;;;;;8359827;28;19916;-64
2021/09/29 18:20:10;;;;;;;;;;;12.20;99.90;;;;;;8370727;28;19909;-64
2021/09/29 18:24:10;;;;;;;;;;;12.10;99.90;;;;;;8389244;28;20003;-64
2021/09/29 18:28:10;;;;;;;;;;;12.10;99.90;;;;;;8389856;28;19966;-64
2021/09/29 18:32:11;;;;;;;;;;;12.10;99.90;;;;;;8390842;28;19912;-64
2021/09/29 18:36:13;;;;;;;;;;;12.20;99.90;;;;;;8390301;28;19924;-64
2021/09/29 18:40:18;;;;;;;;;;;12.20;99.90;;;;;;8390752;28;19927;-64
2021/09/29 18:44:18;;;;;;;;;;;12.10;99.90;;;;;;8390536;28;19913;-64
2021/09/29 18:48:19;;;;;;;;;;;12.10;99.90;;;;;;8379675;28;20050;-64
2021/09/29 18:52:20;;;;;;;;;;;12.10;99.90;;;;;;8357000;28;19915;-64
2021/09/29 19:09:14;;;;;;;;;;;12.40;99.90;;;;;;8357584;28;19920;-64
2021/09/29 19:13:19;;;;;;;;;;;12.40;99.90;;;;;;8357023;28;19952;-65
2021/09/29 19:17:20;;;;;;;;;;;12.20;99.90;;;;;;8356809;28;19917;-64
2021/09/29 19:21:21;;;;;;;;;;;12.10;99.90;;;;;;8371869;28;19921;-64
2021/09/29 19:25:23;;;;;;;;;;;12.00;99.90;;;;;;8369978;28;19909;-64
2021/09/29 19:29:24;;;;;;;;;;;12.10;99.90;;;;;;8373995;28;19995;-65
2021/09/29 19:33:26;;;;;;;;;;;11.90;99.90;;;;;;8364340;28;20452;-65
2021/09/29 19:37:26;;;;;;;;;;;11.90;99.90;;;;;;8359399;28;19943;-64
2021/09/29 19:41:27;;;;;;;;;;;12.10;99.90;;;;;;8395914;28;19960;-64
2021/09/29 19:45:27;;;;;;;;;;;12.10;99.90;;;;;;8402649;28;19912;-64
2021/09/29 19:49:36;;;;;;;;;;;11.90;99.90;;;;;;8387980;28;19920;-63
2021/09/29 20:02:49;;;;;;;;;;;11.90;99.90;;;;;;8382152;28;19965;-63
2021/09/29 20:11:07;;;;;;;;;;;12.00;99.90;;;;;;8384528;28;19975;-63
2021/09/29 20:15:09;;;;;;;;;;;12.00;99.90;;;;;;8398436;28;19921;-63
2021/09/29 20:19:10;;;;;;;;;;;12.00;99.90;;;;;;8384061;28;19962;-62
2021/09/29 20:23:10;;;;;;;;;;;12.10;99.90;;;;;;8368496;28;19927;-63
2021/09/29 20:27:10;;;;;;;;;;;12.00;99.90;;;;;;8384550;28;19960;-63
2021/09/29 20:31:17;;;;;;;;;;;11.90;99.90;;;;;;8402731;28;19947;-63
2021/09/29 20:43:46;;;;;;;;;;;11.60;99.90;;;;;;8402436;28;19954;-63
2021/09/29 20:47:47;;;;;;;;;;;11.60;99.90;;;;;;8395299;28;20521;-63
2021/09/29 20:51:47;;;;;;;;;;;11.80;99.90;;;;;;8363305;28;20004;-63
2021/09/29 20:55:48;;;;;;;;;;;11.70;99.90;;;;;;8363723;28;19913;-63
2021/09/29 20:59:49;;;;;;;;;;;11.90;99.90;;;;;;8363839;28;19929;-63
2021/09/29 21:03:50;;;;;;;;;;;11.90;99.90;;;;;;8363635;28;19912;-63
2021/09/29 21:07:52;;;;;;;;;;;11.80;99.90;;;;;;8361937;28;19931;-63
2021/09/29 21:16:39;;;;;;;;;;;11.80;99.90;;;;;;8363105;28;19913;-63
2021/09/29 21:20:43;;;;;;;;;;;11.80;99.90;;;;;;8362952;28;19928;-63
2021/09/29 21:24:43;;;;;;;;;;;11.80;99.90;;;;;;8362826;28;20379;-63
2021/09/29 21:28:44;;;;;;;;;;;11.70;99.90;;;;;;8362793;28;19955;-63
2021/09/29 21:32:44;;;;;;;;;;;11.80;99.90;;;;;;8362660;28;19916;-63
2021/09/29 21:36:45;;;;;;;;;;;11.70;99.90;;;;;;8362383;28;19939;-63
2021/09/29 22:20:01;;;;;;;;;;;11.30;99.90;;;;;;8373759;28;19919;-63
2021/09/29 22:32:52;;;;;;;;;;;11.40;99.90;;;;;;8360956;28;20358;-63
2021/09/29 23:07:15;;;;;;;;;;;11.20;99.90;;;;;;8392830;28;20097;-63
2021/09/29 23:36:14;;;;;;;;;;;10.60;99.90;;;;;;8359288;28;20042;-63
2021/09/29 23:40:21;;;;;;;;;;;10.50;99.90;;;;;;8359454;28;20332;-63
2021/09/29 23:44:22;;;;;;;;;;;10.50;99.90;;;;;;8358913;28;20555;-64
2021/09/29 23:48:22;;;;;;;;;;;10.70;99.90;;;;;;8358976;28;19952;-63
2021/09/29 23:52:23;;;;;;;;;;;10.80;99.90;;;;;;8359172;28;20004;-63
2021/09/29 23:56:23;;;;;;;;;;;10.70;99.90;;;;;;8358696;28;19913;-63
